Terminal Aerodrome Forecast
Issued by NWS

Home | Current Version | Previous Version | Text Only | Print | Product List | Glossary On
Versions: 1 2 3 4 5 6 7 8 9 10 11 12 13 14 15 16 17 18 19 20 21
000
FTUS41 KCAR 031758
TAFHUL
TAF
KHUL 031758Z 0318/0418 27010G20KT P6SM SKC
     FM032200 20005KT P6SM BKN250
     FM040200 17006KT 3SM -SN OVC050
     FM040400 17007KT 1SM -SN OVC020
     FM040600 17011KT 3/4SM -SN OVC006
     FM041200 22012G19KT 4SM -SN OVC015
     FM041600 24013G21KT P6SM BKN035=

USA.gov is the U.S. government's official web portal to all federal, state and local government web resources and services.